createdAt,value
2019-06-10T00:01:00.002Z,20.90
2019-06-10T00:01:59.520Z,20.84
2019-06-10T00:03:00.323Z,20.77
2019-06-10T00:04:00.506Z,20.67
2019-06-10T00:05:00.291Z,20.63
2019-06-10T00:06:01.885Z,20.39
2019-06-10T00:07:02.021Z,20.41
2019-06-10T00:08:02.105Z,20.58
2019-06-10T00:09:03.078Z,20.66
2019-06-10T00:10:02.165Z,20.69
2019-06-10T00:11:01.759Z,20.75
2019-06-10T00:12:01.530Z,20.74
2019-06-10T00:13:02.240Z,20.66
2019-06-10T00:14:01.167Z,20.70
2019-06-10T00:15:01.311Z,20.75
2019-06-10T00:16:01.280Z,20.70
2019-06-10T00:17:01.527Z,20.67
2019-06-10T00:18:18.716Z,20.62
2019-06-10T00:19:02.821Z,20.74
2019-06-10T00:20:01.927Z,20.56
2019-06-10T00:21:01.926Z,20.51
2019-06-10T00:22:01.699Z,20.41
2019-06-10T00:23:01.689Z,20.56
2019-06-10T00:24:01.694Z,20.32
2019-06-10T00:25:01.796Z,20.28
2019-06-10T00:26:03.756Z,20.34
2019-06-10T00:27:00.295Z,20.37
2019-06-10T00:28:00.537Z,20.50
2019-06-10T00:29:00.679Z,20.40
2019-06-10T00:30:02.846Z,20.31
2019-06-10T00:31:01.204Z,20.31
2019-06-10T00:32:03.181Z,20.41
2019-06-10T00:33:01.194Z,20.51
2019-06-10T00:34:02.927Z,20.56
2019-06-10T00:35:01.947Z,20.47
2019-06-10T00:36:03.717Z,20.47
2019-06-10T00:37:01.989Z,20.41
2019-06-10T00:38:02.056Z,20.41
2019-06-10T00:39:02.433Z,20.40
2019-06-10T00:40:02.165Z,20.26
2019-06-10T00:41:02.306Z,20.36
2019-06-10T00:42:02.499Z,20.37
2019-06-10T00:43:02.164Z,20.39
2019-06-10T00:44:02.162Z,20.43
2019-06-10T00:45:02.680Z,20.50
2019-06-10T00:46:00.689Z,20.50
2019-06-10T00:47:00.694Z,20.62
2019-06-10T00:48:13.546Z,20.60
2019-06-10T00:49:03.942Z,20.58
2019-06-10T00:50:03.286Z,20.43
2019-06-10T00:51:01.330Z,20.40
2019-06-10T00:52:02.462Z,20.43
2019-06-10T00:53:01.339Z,20.58
2019-06-10T00:54:03.334Z,20.41
2019-06-10T00:55:01.693Z,20.51
2019-06-10T00:56:02.333Z,20.43
2019-06-10T00:57:01.223Z,20.41
2019-06-10T00:58:01.437Z,20.39
2019-06-10T00:59:01.062Z,20.26
2019-06-10T01:00:01.690Z,20.29
2019-06-10T01:01:01.182Z,20.29
2019-06-10T01:02:01.718Z,20.32
2019-06-10T01:03:01.109Z,20.29
2019-06-10T01:04:02.936Z,20.29
2019-06-10T01:05:00.876Z,20.14
2019-06-10T01:06:02.597Z,20.03
2019-06-10T01:07:00.771Z,20.02
2019-06-10T01:08:01.349Z,19.96
2019-06-10T01:09:00.686Z,19.88
2019-06-10T01:10:01.084Z,19.89
2019-06-10T01:11:05.660Z,19.86
2019-06-10T01:12:01.189Z,19.85
2019-06-10T01:13:00.843Z,19.76
2019-06-10T01:14:01.460Z,19.74
2019-06-10T01:15:00.892Z,19.81
2019-06-10T01:16:01.626Z,19.89
2019-06-10T01:17:01.256Z,19.86
2019-06-10T01:18:01.353Z,19.70
2019-06-10T01:19:01.468Z,19.67
2019-06-10T01:20:01.551Z,19.69
2019-06-10T01:21:02.005Z,19.67
2019-06-10T01:22:01.522Z,19.62
2019-06-10T01:23:01.559Z,19.71
2019-06-10T01:24:01.172Z,19.71
2019-06-10T01:25:01.634Z,19.62
2019-06-10T01:26:01.620Z,19.62
2019-06-10T01:27:01.272Z,19.59
2019-06-10T01:28:00.649Z,19.67
2019-06-10T01:29:01.072Z,19.64
2019-06-10T01:30:02.979Z,19.73
2019-06-10T01:31:01.143Z,19.67
2019-06-10T01:32:01.703Z,19.63
2019-06-10T01:33:01.147Z,19.56
2019-06-10T01:34:00.848Z,19.49
2019-06-10T01:35:01.263Z,19.41
2019-06-10T01:36:00.877Z,19.47
2019-06-10T01:37:01.464Z,19.48
2019-06-10T01:38:01.087Z,19.51
2019-06-10T01:39:01.574Z,19.47
2019-06-10T01:40:00.917Z,19.44
2019-06-10T01:41:01.485Z,19.54
2019-06-10T01:42:00.877Z,19.52
2019-06-10T01:43:01.139Z,19.54
2019-06-10T01:44:01.767Z,19.37
2019-06-10T01:45:01.264Z,19.41
2019-06-10T01:46:01.594Z,19.33
2019-06-10T01:47:01.108Z,19.44
2019-06-10T01:48:01.430Z,19.39
2019-06-10T01:49:01.021Z,19.34
2019-06-10T01:50:01.022Z,19.30
2019-06-10T01:51:01.762Z,19.18
2019-06-10T01:52:01.638Z,19.22
2019-06-10T01:53:01.096Z,19.29
2019-06-10T01:54:01.405Z,19.29
2019-06-10T01:55:01.630Z,19.19
2019-06-10T01:56:01.185Z,19.18
2019-06-10T01:57:01.595Z,19.29
2019-06-10T01:58:01.182Z,19.16
2019-06-10T01:59:01.553Z,19.22
2019-06-10T02:00:08.998Z,19.07
2019-06-10T02:01:01.528Z,19.02
2019-06-10T02:02:01.257Z,19.12
2019-06-10T02:03:03.543Z,19.08
2019-06-10T02:04:01.296Z,19.00
2019-06-10T02:05:01.882Z,19.00
2019-06-10T02:06:01.611Z,18.90
2019-06-10T02:07:01.471Z,18.80
2019-06-10T02:08:01.373Z,18.81
2019-06-10T02:09:01.516Z,18.77
2019-06-10T02:10:01.450Z,18.80
2019-06-10T02:11:01.436Z,18.78
2019-06-10T02:12:02.208Z,18.59
2019-06-10T02:13:01.472Z,18.73
2019-06-10T02:14:01.489Z,18.68
2019-06-10T02:15:01.508Z,18.65
2019-06-10T02:16:01.544Z,18.56
2019-06-10T02:17:01.564Z,18.65
2019-06-10T02:18:01.577Z,18.66
2019-06-10T02:19:04.230Z,18.58
2019-06-10T02:20:01.606Z,18.60
2019-06-10T02:21:01.706Z,18.58
2019-06-10T02:22:01.774Z,18.58
2019-06-10T02:23:02.029Z,18.62
2019-06-10T02:24:01.684Z,18.53
2019-06-10T02:25:01.707Z,18.58
2019-06-10T02:26:02.076Z,18.60
2019-06-10T02:27:01.745Z,18.59
2019-06-10T02:28:01.759Z,18.53
2019-06-10T02:29:01.782Z,18.55
2019-06-10T02:30:13.211Z,18.31
2019-06-10T02:31:03.822Z,18.35
2019-06-10T02:32:04.752Z,18.35
2019-06-10T02:33:02.509Z,18.40
2019-06-10T02:34:02.639Z,18.28
2019-06-10T02:35:13.197Z,18.15
2019-06-10T02:36:04.003Z,18.16
2019-06-10T02:37:04.630Z,18.15
2019-06-10T02:38:03.525Z,18.15
2019-06-10T02:39:04.651Z,18.20
2019-06-10T02:40:04.458Z,18.16
2019-06-10T02:41:04.424Z,18.15
2019-06-10T02:42:04.545Z,18.07
2019-06-10T02:43:03.499Z,18.20
2019-06-10T02:44:04.343Z,18.15
2019-06-10T02:45:03.810Z,18.22
2019-06-10T02:46:04.284Z,18.29
2019-06-10T02:47:03.431Z,18.26
2019-06-10T02:48:04.141Z,18.29
2019-06-10T02:49:20.903Z,18.05
2019-06-10T02:50:07.336Z,18.16
2019-06-10T02:51:03.901Z,18.11
2019-06-10T02:52:03.359Z,18.01
2019-06-10T02:53:04.025Z,18.07
2019-06-10T02:54:04.734Z,18.04
2019-06-10T02:55:04.155Z,18.18
2019-06-10T02:56:04.151Z,18.19
2019-06-10T02:57:04.351Z,18.20
2019-06-10T02:58:03.932Z,18.15
2019-06-10T02:59:03.384Z,18.07
2019-06-10T03:00:06.405Z,18.18
2019-06-10T03:01:04.165Z,18.07
2019-06-10T03:02:03.029Z,18.11
2019-06-10T03:03:03.922Z,18.11
2019-06-10T03:04:04.564Z,18.16
2019-06-10T03:05:04.624Z,18.07
2019-06-10T03:06:06.547Z,18.04
2019-06-10T03:07:03.430Z,18.04
2019-06-10T03:08:03.890Z,18.01
2019-06-10T03:09:03.748Z,18.00
2019-06-10T03:10:04.651Z,18.15
2019-06-10T03:11:03.720Z,18.31
2019-06-10T03:12:04.739Z,18.22
2019-06-10T03:13:02.668Z,18.26
2019-06-10T03:14:02.757Z,18.04
2019-06-10T03:15:02.661Z,18.04
2019-06-10T03:16:02.855Z,17.94
2019-06-10T03:17:03.159Z,18.03
2019-06-10T03:18:02.755Z,18.07
2019-06-10T03:19:03.082Z,17.98
2019-06-10T03:20:02.885Z,17.87
2019-06-10T03:21:02.846Z,17.86
2019-06-10T03:22:02.873Z,17.89
2019-06-10T03:23:03.049Z,18.05
2019-06-10T03:24:02.860Z,18.05
2019-06-10T03:25:03.050Z,18.05
2019-06-10T03:26:04.236Z,18.11
2019-06-10T03:27:02.891Z,18.00
2019-06-10T03:28:03.108Z,18.08
2019-06-10T03:29:02.956Z,18.03
2019-06-10T03:30:14.159Z,18.03
2019-06-10T03:31:05.915Z,18.18
2019-06-10T03:32:05.174Z,18.01
2019-06-10T03:33:04.928Z,17.98
2019-06-10T03:34:04.927Z,18.01
2019-06-10T03:35:05.493Z,18.00
2019-06-10T03:36:03.504Z,18.03
2019-06-10T03:37:03.081Z,18.10
2019-06-10T03:38:03.145Z,18.13
2019-06-10T03:39:03.118Z,18.08
2019-06-10T03:40:03.136Z,18.10
2019-06-10T03:41:03.456Z,18.11
2019-06-10T03:42:03.173Z,18.13
2019-06-10T03:43:03.199Z,18.11
2019-06-10T03:44:03.212Z,17.92
2019-06-10T03:45:03.465Z,17.95
2019-06-10T03:46:03.470Z,17.98
2019-06-10T03:47:03.272Z,18.11
2019-06-10T03:48:03.788Z,18.03
2019-06-10T03:49:03.334Z,18.05
2019-06-10T03:50:03.457Z,17.97
2019-06-10T03:51:03.627Z,17.90
2019-06-10T03:52:03.373Z,18.01
2019-06-10T03:53:04.412Z,18.03
2019-06-10T03:54:03.400Z,18.11
2019-06-10T03:55:03.421Z,17.98
2019-06-10T03:56:03.444Z,17.98
2019-06-10T03:57:03.459Z,18.10
2019-06-10T03:58:03.536Z,18.18
2019-06-10T03:59:03.501Z,18.22
2019-06-10T04:00:10.406Z,18.25
2019-06-10T04:01:03.542Z,18.34
2019-06-10T04:02:03.555Z,18.25
2019-06-10T04:03:03.577Z,18.25
2019-06-10T04:04:03.595Z,18.25
2019-06-10T04:05:03.612Z,18.15
2019-06-10T04:06:03.648Z,18.00
2019-06-10T04:07:04.034Z,18.04
2019-06-10T04:08:03.671Z,18.10
2019-06-10T04:09:03.694Z,18.16
2019-06-10T04:10:03.713Z,18.01
2019-06-10T04:11:03.726Z,18.11
2019-06-10T04:12:03.796Z,18.11
2019-06-10T04:13:03.768Z,18.16
2019-06-10T04:14:03.785Z,18.08
2019-06-10T04:15:03.805Z,18.15
2019-06-10T04:16:03.827Z,18.28
2019-06-10T04:17:03.848Z,18.23
2019-06-10T04:18:04.110Z,18.41
2019-06-10T04:19:03.879Z,18.34
2019-06-10T04:20:11.666Z,18.45
2019-06-10T04:21:03.922Z,18.41
2019-06-10T04:22:03.942Z,18.55
2019-06-10T04:23:03.961Z,18.55
2019-06-10T04:24:03.982Z,18.44
2019-06-10T04:25:04.006Z,18.45
2019-06-10T04:26:04.221Z,18.53
2019-06-10T04:27:04.050Z,18.68
2019-06-10T04:28:04.052Z,18.65
2019-06-10T04:29:04.080Z,18.65
2019-06-10T04:30:04.097Z,18.74
2019-06-10T04:31:04.117Z,18.81
2019-06-10T04:32:04.136Z,18.88
2019-06-10T04:33:04.146Z,19.00
2019-06-10T04:34:04.184Z,18.99
2019-06-10T04:35:04.189Z,19.18
2019-06-10T04:36:04.207Z,19.16
2019-06-10T04:37:04.228Z,19.27
2019-06-10T04:38:04.248Z,19.29
2019-06-10T04:39:04.267Z,19.30
2019-06-10T04:40:04.324Z,19.40
2019-06-10T04:41:04.328Z,19.47
2019-06-10T04:42:04.326Z,19.49
2019-06-10T04:43:04.343Z,19.48
2019-06-10T04:44:04.360Z,19.55
2019-06-10T04:45:04.380Z,19.64
2019-06-10T04:46:04.401Z,19.77
2019-06-10T04:47:04.419Z,19.76
2019-06-10T04:48:04.441Z,19.76
2019-06-10T04:49:04.511Z,19.69
2019-06-10T04:50:04.491Z,19.79
2019-06-10T04:51:04.502Z,19.82
2019-06-10T04:52:04.518Z,19.71
2019-06-10T04:53:04.542Z,19.64
2019-06-10T04:54:04.554Z,19.70
2019-06-10T04:55:04.580Z,19.84
2019-06-10T04:56:04.594Z,19.86
2019-06-10T04:57:04.632Z,19.71
2019-06-10T04:58:04.644Z,19.67
2019-06-10T04:59:04.663Z,19.49
2019-06-10T05:00:11.299Z,19.51
2019-06-10T05:01:04.693Z,19.47
2019-06-10T05:02:05.817Z,19.37
2019-06-10T05:03:04.734Z,19.26
2019-06-10T05:04:04.752Z,19.14
2019-06-10T05:05:04.772Z,19.27
2019-06-10T05:06:04.791Z,19.29
2019-06-10T05:07:04.812Z,19.30
2019-06-10T05:08:04.840Z,18.99
2019-06-10T05:09:04.850Z,19.26
2019-06-10T05:10:04.878Z,19.45
2019-06-10T05:11:04.892Z,19.49
2019-06-10T05:12:04.909Z,19.58
2019-06-10T05:13:04.947Z,19.76
2019-06-10T05:14:04.951Z,19.84
2019-06-10T05:15:04.968Z,19.88
2019-06-10T05:16:04.990Z,19.99
2019-06-10T05:17:05.007Z,19.96
2019-06-10T05:18:05.026Z,20.07
2019-06-10T05:19:05.045Z,20.03
2019-06-10T05:20:05.067Z,19.99
2019-06-10T05:21:05.089Z,20.02
2019-06-10T05:22:05.108Z,20.04
2019-06-10T05:23:05.125Z,20.06
2019-06-10T05:24:05.149Z,19.84
2019-06-10T05:25:05.169Z,19.74
2019-06-10T05:26:05.185Z,19.74
2019-06-10T05:27:05.227Z,19.48
2019-06-10T05:28:05.229Z,19.39
2019-06-10T05:29:05.245Z,19.26
2019-06-10T05:30:05.265Z,19.22
2019-06-10T05:31:05.284Z,19.29
2019-06-10T05:32:05.415Z,19.22
2019-06-10T05:33:05.336Z,19.24
2019-06-10T05:34:05.343Z,19.47
2019-06-10T05:35:05.369Z,19.39
2019-06-10T05:36:05.388Z,19.44
2019-06-10T05:37:05.406Z,19.45
2019-06-10T05:38:05.429Z,19.45
2019-06-10T05:39:05.444Z,19.47
2019-06-10T05:40:05.592Z,19.52
2019-06-10T05:41:05.492Z,19.47
2019-06-10T05:42:05.523Z,19.62
2019-06-10T05:43:05.521Z,19.66
2019-06-10T05:44:05.549Z,19.88
2019-06-10T05:45:05.558Z,19.95
2019-06-10T05:46:05.582Z,20.04
2019-06-10T05:47:05.618Z,20.14
2019-06-10T05:48:05.621Z,20.22
2019-06-10T05:49:05.659Z,20.29
2019-06-10T05:50:05.662Z,20.34
2019-06-10T05:51:06.787Z,20.44
2019-06-10T05:52:05.700Z,20.74
2019-06-10T05:53:05.716Z,20.84
2019-06-10T05:54:05.737Z,20.88
2019-06-10T05:55:05.765Z,20.85
2019-06-10T05:56:05.785Z,20.96
2019-06-10T05:57:05.802Z,20.92
2019-06-10T05:58:05.823Z,20.95
2019-06-10T05:59:05.844Z,20.93
2019-06-10T06:00:11.277Z,21.14
2019-06-10T06:01:05.879Z,21.46
2019-06-10T06:02:05.894Z,21.67
2019-06-10T06:03:05.926Z,21.76
2019-06-10T06:04:05.946Z,21.92
2019-06-10T06:05:05.960Z,21.99
2019-06-10T06:06:05.977Z,22.25
2019-06-10T06:07:06.002Z,22.54
2019-06-10T06:08:08.700Z,22.88
2019-06-10T06:09:06.041Z,23.05
2019-06-10T06:10:06.064Z,23.41
2019-06-10T06:11:06.081Z,23.86
2019-06-10T06:12:06.222Z,23.93
2019-06-10T06:13:06.139Z,24.10
2019-06-10T06:14:06.153Z,24.69
2019-06-10T06:15:06.173Z,25.17
2019-06-10T06:16:06.187Z,25.23
2019-06-10T06:17:06.210Z,25.26
2019-06-10T06:18:10.409Z,25.41
2019-06-10T06:19:06.253Z,25.59
2019-06-10T06:20:06.276Z,25.72
2019-06-10T06:21:20.782Z,25.62
2019-06-10T06:22:06.315Z,25.63
2019-06-10T06:23:08.922Z,25.43
2019-06-10T06:24:06.399Z,25.33
2019-06-10T06:25:06.398Z,25.01
2019-06-10T06:26:06.407Z,25.03
2019-06-10T06:27:06.446Z,24.48
2019-06-10T06:28:06.450Z,24.58
2019-06-10T06:29:06.473Z,24.70
2019-06-10T06:30:11.415Z,24.54
2019-06-10T06:31:06.526Z,24.54
2019-06-10T06:32:06.545Z,24.69
2019-06-10T06:33:06.565Z,24.61
2019-06-10T06:34:06.586Z,24.68
2019-06-10T06:35:06.627Z,24.96
2019-06-10T06:36:06.648Z,25.16
2019-06-10T06:37:06.653Z,25.25
2019-06-10T06:38:06.682Z,24.96
2019-06-10T06:39:06.708Z,25.16
2019-06-10T06:40:06.724Z,25.41
2019-06-10T06:41:06.750Z,25.16
2019-06-10T06:42:06.767Z,24.80
2019-06-10T06:43:06.791Z,24.99
2019-06-10T06:44:06.809Z,24.99
2019-06-10T06:45:06.834Z,24.80
2019-06-10T06:46:06.857Z,24.61
2019-06-10T06:47:06.880Z,24.84
2019-06-10T06:48:06.903Z,25.16
2019-06-10T06:49:06.930Z,25.83
2019-06-10T06:50:07.008Z,25.96
2019-06-10T06:51:08.726Z,26.71
2019-06-10T06:52:07.001Z,27.25
2019-06-10T06:53:23.380Z,27.51
2019-06-10T06:54:07.038Z,27.75
2019-06-10T06:55:07.058Z,27.93
2019-06-10T06:56:07.085Z,28.30
2019-06-10T06:57:07.137Z,29.29
2019-06-10T06:58:07.133Z,29.71
2019-06-10T06:59:07.162Z,29.59
2019-06-10T07:00:34.274Z,29.91
2019-06-10T07:01:10.885Z,30.31
2019-06-10T07:02:07.226Z,30.27
2019-06-10T07:03:07.269Z,30.16
2019-06-10T07:04:07.284Z,29.60
2019-06-10T07:05:07.306Z,29.07
2019-06-10T07:06:07.332Z,28.59
2019-06-10T07:07:07.349Z,28.07
2019-06-10T07:08:07.397Z,27.98
2019-06-10T07:09:08.334Z,27.86
2019-06-10T07:10:07.427Z,27.73
2019-06-10T07:11:07.461Z,28.23
2019-06-10T07:12:07.483Z,28.38
2019-06-10T07:13:07.502Z,28.41
2019-06-10T07:14:10.077Z,28.41
2019-06-10T07:15:07.555Z,28.14
2019-06-10T07:16:07.579Z,27.71
2019-06-10T07:17:07.603Z,28.19
2019-06-10T07:18:07.732Z,28.12
2019-06-10T07:19:07.659Z,28.51
2019-06-10T07:20:07.674Z,28.70
2019-06-10T07:21:07.707Z,29.35
2019-06-10T07:22:12.463Z,30.10
2019-06-10T07:23:07.748Z,30.57
2019-06-10T07:24:07.777Z,31.20
2019-06-10T07:25:07.811Z,31.10
2019-06-10T07:26:07.823Z,30.08
2019-06-10T07:27:07.922Z,29.91
2019-06-10T07:28:07.880Z,30.35
2019-06-10T07:29:07.903Z,29.82
2019-06-10T07:30:12.501Z,29.54
2019-06-10T07:31:22.765Z,30.28
2019-06-10T07:32:07.995Z,30.34
2019-06-10T07:33:08.007Z,29.95
2019-06-10T07:34:08.102Z,29.94
2019-06-10T07:35:08.061Z,29.90
2019-06-10T07:36:08.102Z,29.87
2019-06-10T07:37:08.113Z,30.00
2019-06-10T07:38:08.151Z,29.88
2019-06-10T07:39:08.167Z,30.09
2019-06-10T07:40:08.198Z,29.84
2019-06-10T07:41:08.224Z,29.23
2019-06-10T07:42:08.248Z,29.69
2019-06-10T07:43:08.288Z,29.34
2019-06-10T07:44:08.302Z,29.63
2019-06-10T07:45:08.327Z,30.06
2019-06-10T07:46:08.352Z,30.15
2019-06-10T07:47:08.382Z,29.93
2019-06-10T07:48:08.408Z,29.71
2019-06-10T07:49:08.436Z,29.61
2019-06-10T07:50:08.460Z,30.02
2019-06-10T07:51:08.488Z,29.90
2019-06-10T07:52:15.548Z,29.41
2019-06-10T07:53:08.554Z,28.75
2019-06-10T07:54:08.564Z,28.30
2019-06-10T07:55:08.596Z,28.78
2019-06-10T07:56:08.619Z,29.10
2019-06-10T07:57:08.646Z,29.01
2019-06-10T07:58:08.674Z,28.66
2019-06-10T07:59:08.701Z,29.01
2019-06-10T08:00:08.742Z,29.45
2019-06-10T08:01:08.755Z,29.90
2019-06-10T08:02:08.778Z,29.91
2019-06-10T08:03:08.982Z,30.18
2019-06-10T08:04:08.829Z,29.95
2019-06-10T08:05:08.867Z,30.10
2019-06-10T08:06:08.886Z,30.47
2019-06-10T08:07:08.913Z,30.47
2019-06-10T08:08:08.935Z,30.23
2019-06-10T08:09:08.972Z,30.35
2019-06-10T08:10:08.986Z,29.72
2019-06-10T08:11:09.013Z,29.94
2019-06-10T08:12:09.040Z,29.76
2019-06-10T08:13:09.064Z,28.93
2019-06-10T08:14:09.092Z,29.12
2019-06-10T08:15:09.117Z,29.17
2019-06-10T08:16:09.142Z,29.17
2019-06-10T08:17:09.174Z,28.64
2019-06-10T08:18:09.192Z,28.51
2019-06-10T08:19:25.990Z,28.29
2019-06-10T08:20:09.981Z,29.05
2019-06-10T08:21:09.310Z,29.10
2019-06-10T08:22:09.294Z,29.29
2019-06-10T08:23:09.322Z,29.35
2019-06-10T08:24:09.344Z,28.52
2019-06-10T08:25:09.373Z,28.79
2019-06-10T08:26:09.405Z,29.07
2019-06-10T08:27:09.418Z,29.60
2019-06-10T08:28:09.456Z,29.91
2019-06-10T08:29:09.474Z,29.76
2019-06-10T08:30:21.259Z,29.56
2019-06-10T08:31:12.157Z,29.56
2019-06-10T08:32:09.569Z,29.35
2019-06-10T08:33:09.570Z,29.20
2019-06-10T08:34:09.601Z,29.26
2019-06-10T08:35:09.617Z,29.42
2019-06-10T08:36:09.648Z,29.23
2019-06-10T08:37:09.698Z,29.66
2019-06-10T08:38:09.690Z,29.81
2019-06-10T08:39:12.173Z,30.00
2019-06-10T08:40:09.743Z,30.23
2019-06-10T08:41:12.082Z,30.05
2019-06-10T08:42:09.816Z,30.08
2019-06-10T08:43:09.811Z,29.50
2019-06-10T08:44:12.352Z,29.84
2019-06-10T08:45:12.324Z,29.44
2019-06-10T08:46:09.886Z,28.81
2019-06-10T08:47:12.290Z,28.82
2019-06-10T08:48:09.931Z,28.82
2019-06-10T08:49:12.486Z,28.78
2019-06-10T08:50:09.983Z,28.69
2019-06-10T08:51:12.324Z,28.84
2019-06-10T08:52:10.032Z,29.05
2019-06-10T08:53:14.825Z,29.31
2019-06-10T08:54:12.645Z,29.38
2019-06-10T08:55:12.406Z,29.20
2019-06-10T08:56:10.141Z,29.16
2019-06-10T08:57:12.475Z,28.59
2019-06-10T08:58:10.173Z,28.57
2019-06-10T08:59:12.288Z,28.81
2019-06-10T09:00:12.564Z,29.13
2019-06-10T09:01:12.696Z,29.05
2019-06-10T09:02:12.347Z,28.81
2019-06-10T09:03:12.453Z,29.10
2019-06-10T09:04:10.323Z,29.01
2019-06-10T09:05:12.561Z,29.39
2019-06-10T09:06:10.366Z,29.39
2019-06-10T09:07:12.564Z,29.29
2019-06-10T09:08:12.831Z,29.13
2019-06-10T09:09:12.690Z,28.93
2019-06-10T09:10:13.025Z,29.12
2019-06-10T09:11:12.744Z,28.93
2019-06-10T09:12:28.352Z,28.94
2019-06-10T09:13:12.922Z,28.69
2019-06-10T09:14:12.612Z,28.69
2019-06-10T09:15:12.921Z,28.69
2019-06-10T09:16:16.614Z,28.63
2019-06-10T09:17:12.553Z,28.60
2019-06-10T09:18:13.936Z,28.23
2019-06-10T09:19:13.158Z,27.95
2019-06-10T09:20:12.851Z,27.98
2019-06-10T09:21:12.720Z,28.37
2019-06-10T09:22:12.615Z,28.63
2019-06-10T09:23:19.201Z,28.70
2019-06-10T09:24:12.919Z,28.84
2019-06-10T09:25:12.392Z,28.93
2019-06-10T09:26:12.522Z,28.69
2019-06-10T09:27:12.905Z,28.97
2019-06-10T09:28:12.855Z,28.94
2019-06-10T09:29:13.457Z,29.35
2019-06-10T09:30:13.303Z,29.36
2019-06-10T09:31:13.772Z,29.59
2019-06-10T09:32:12.498Z,29.61
2019-06-10T09:33:13.001Z,29.81
2019-06-10T09:34:12.716Z,29.36
2019-06-10T09:35:12.632Z,29.47
2019-06-10T09:36:12.551Z,29.63
2019-06-10T09:37:12.447Z,29.79
2019-06-10T09:38:11.115Z,29.76
2019-06-10T09:39:12.620Z,29.63
2019-06-10T09:40:12.310Z,29.04
2019-06-10T09:41:14.042Z,29.16
2019-06-10T09:42:14.494Z,29.01
2019-06-10T09:43:12.845Z,29.38
2019-06-10T09:44:12.905Z,29.04
2019-06-10T09:45:12.994Z,29.16
2019-06-10T09:46:12.648Z,29.16
2019-06-10T09:47:14.268Z,29.14
2019-06-10T09:48:13.241Z,28.79
2019-06-10T09:49:12.713Z,28.75
2019-06-10T09:50:12.280Z,28.75
2019-06-10T09:51:12.478Z,29.04
2019-06-10T09:52:13.475Z,28.86
2019-06-10T09:53:12.700Z,29.02
2019-06-10T09:54:12.725Z,29.01
2019-06-10T09:55:12.851Z,28.78
2019-06-10T09:56:12.526Z,28.82
2019-06-10T09:57:12.708Z,28.19
2019-06-10T09:58:12.271Z,28.08
2019-06-10T09:59:12.474Z,27.90
2019-06-10T10:00:12.470Z,27.68
2019-06-10T10:01:13.317Z,27.83
2019-06-10T10:02:12.565Z,27.93
2019-06-10T10:03:12.319Z,28.25
2019-06-10T10:04:12.379Z,28.38
2019-06-10T10:05:11.755Z,28.79
2019-06-10T10:06:15.615Z,29.29
2019-06-10T10:07:12.218Z,29.54
2019-06-10T10:08:12.738Z,29.84
2019-06-10T10:09:11.852Z,29.84
2019-06-10T10:10:12.889Z,29.61
2019-06-10T10:11:12.923Z,29.54
2019-06-10T10:12:12.311Z,29.51
2019-06-10T10:13:13.124Z,29.68
2019-06-10T10:14:15.850Z,29.41
2019-06-10T10:15:24.239Z,29.35
2019-06-10T10:16:13.149Z,29.36
2019-06-10T10:17:12.866Z,28.89
2019-06-10T10:18:13.421Z,29.14
2019-06-10T10:19:13.051Z,29.39
2019-06-10T10:20:12.373Z,29.04
2019-06-10T10:21:13.064Z,29.07
2019-06-10T10:22:13.981Z,29.08
2019-06-10T10:23:13.651Z,29.02
2019-06-10T10:24:14.929Z,28.82
2019-06-10T10:25:14.397Z,28.42
2019-06-10T10:26:13.218Z,28.20
2019-06-10T10:27:13.402Z,28.22
2019-06-10T10:28:13.407Z,28.10
2019-06-10T10:29:13.025Z,27.86
2019-06-10T10:30:13.522Z,27.93
2019-06-10T10:31:13.097Z,27.82
2019-06-10T10:32:13.198Z,28.14
2019-06-10T10:33:12.913Z,28.15
2019-06-10T10:34:13.539Z,28.41
2019-06-10T10:35:12.753Z,28.42
2019-06-10T10:36:14.074Z,28.41
2019-06-10T10:37:12.505Z,28.29
2019-06-10T10:38:14.327Z,28.22
2019-06-10T10:39:13.965Z,27.85
2019-06-10T10:40:12.575Z,27.96
2019-06-10T10:41:13.584Z,28.23
2019-06-10T10:42:12.692Z,28.45
2019-06-10T10:43:25.197Z,29.04
2019-06-10T10:44:13.822Z,28.74
2019-06-10T10:45:13.337Z,29.08
2019-06-10T10:46:14.028Z,29.35
2019-06-10T10:47:12.738Z,29.36
2019-06-10T10:48:14.113Z,29.41
2019-06-10T10:49:13.427Z,29.41
2019-06-10T10:50:13.961Z,29.27
2019-06-10T10:51:13.366Z,28.86
2019-06-10T10:52:13.049Z,29.07
2019-06-10T10:53:12.979Z,29.12
2019-06-10T10:54:28.435Z,29.07
2019-06-10T10:55:13.171Z,29.26
2019-06-10T10:56:13.252Z,29.26
2019-06-10T10:57:13.236Z,29.51
2019-06-10T10:58:12.997Z,29.60
2019-06-10T10:59:13.487Z,29.50
2019-06-10T11:00:13.060Z,29.56
2019-06-10T11:01:15.042Z,29.56
2019-06-10T11:02:13.092Z,29.51
2019-06-10T11:03:13.457Z,29.63
2019-06-10T11:04:13.465Z,29.97
2019-06-10T11:05:13.164Z,29.95
2019-06-10T11:06:13.305Z,30.06
2019-06-10T11:07:13.207Z,30.19
2019-06-10T11:08:14.343Z,29.63
2019-06-10T11:09:13.285Z,29.16
2019-06-10T11:10:13.278Z,29.39
2019-06-10T11:11:13.684Z,29.78
2019-06-10T11:12:13.330Z,29.82
2019-06-10T11:13:13.353Z,30.06
2019-06-10T11:14:14.977Z,29.75
2019-06-10T11:15:13.784Z,29.76
2019-06-10T11:16:13.531Z,29.91
2019-06-10T11:17:13.448Z,29.95
2019-06-10T11:18:13.470Z,29.73
2019-06-10T11:19:13.493Z,29.76
2019-06-10T11:20:13.730Z,29.66
2019-06-10T11:21:13.555Z,30.06
2019-06-10T11:22:13.569Z,30.32
2019-06-10T11:23:13.591Z,30.28
2019-06-10T11:24:14.524Z,30.28
2019-06-10T11:25:13.646Z,30.32
2019-06-10T11:26:13.661Z,30.27
2019-06-10T11:27:13.689Z,30.19
2019-06-10T11:28:13.707Z,30.09
2019-06-10T11:29:13.733Z,29.66
2019-06-10T11:30:13.759Z,29.12
2019-06-10T11:31:14.240Z,28.67
2019-06-10T11:32:13.814Z,28.72
2019-06-10T11:33:13.830Z,28.38
2019-06-10T11:34:13.853Z,28.62
2019-06-10T11:35:13.874Z,28.96
2019-06-10T11:36:13.929Z,29.35
2019-06-10T11:37:13.921Z,29.78
2019-06-10T11:38:13.949Z,30.28
2019-06-10T11:39:13.975Z,30.53
2019-06-10T11:40:13.992Z,30.46
2019-06-10T11:41:14.033Z,30.21
2019-06-10T11:42:14.040Z,30.39
2019-06-10T11:43:14.064Z,29.84
2019-06-10T11:44:14.725Z,29.86
2019-06-10T11:45:14.125Z,29.59
2019-06-10T11:46:14.227Z,29.41
2019-06-10T11:47:14.161Z,29.86
2019-06-10T11:48:14.186Z,30.00
2019-06-10T11:49:14.208Z,30.19
2019-06-10T11:50:14.234Z,30.50
2019-06-10T11:51:14.277Z,30.19
2019-06-10T11:52:14.287Z,30.24
2019-06-10T11:53:14.311Z,30.34
2019-06-10T11:54:14.328Z,30.31
2019-06-10T11:55:18.960Z,30.31
2019-06-10T11:56:14.381Z,29.84
2019-06-10T11:57:14.406Z,29.41
2019-06-10T11:58:14.424Z,28.89
2019-06-10T11:59:14.454Z,28.94
2019-06-10T12:00:17.273Z,29.07
2019-06-10T12:01:14.503Z,29.04
2019-06-10T12:02:14.525Z,29.13
2019-06-10T12:03:14.555Z,29.32
2019-06-10T12:04:14.571Z,28.94
2019-06-10T12:05:14.596Z,28.79
2019-06-10T12:06:14.699Z,29.20
2019-06-10T12:07:14.639Z,29.32
2019-06-10T12:08:14.672Z,29.32
2019-06-10T12:09:14.710Z,29.01
2019-06-10T12:10:14.717Z,29.41
2019-06-10T12:11:14.737Z,29.29
2019-06-10T12:12:14.807Z,29.14
2019-06-10T12:13:14.788Z,29.32
2019-06-10T12:14:14.980Z,29.19
2019-06-10T12:15:14.835Z,29.29
2019-06-10T12:17:05.723Z,29.66
2019-06-10T12:17:32.736Z,29.84
2019-06-10T12:18:14.905Z,30.08
2019-06-10T12:19:14.931Z,30.28
2019-06-10T12:20:14.954Z,29.88
2019-06-10T12:21:14.978Z,29.71
2019-06-10T12:22:15.004Z,29.04
2019-06-10T12:23:15.025Z,29.13
2019-06-10T12:24:15.046Z,29.23
2019-06-10T12:25:31.300Z,29.65
2019-06-10T12:26:15.094Z,29.86
2019-06-10T12:27:15.127Z,29.82
2019-06-10T12:28:15.140Z,29.71
2019-06-10T12:29:15.167Z,29.94
2019-06-10T12:30:15.192Z,29.91
2019-06-10T12:31:15.215Z,29.24
2019-06-10T12:32:15.240Z,28.78
2019-06-10T12:33:21.434Z,29.04
2019-06-10T12:34:15.286Z,29.24
2019-06-10T12:35:15.310Z,28.98
2019-06-10T12:36:15.337Z,28.81
2019-06-10T12:37:16.051Z,28.97
2019-06-10T12:38:15.383Z,28.78
2019-06-10T12:39:17.355Z,29.13
2019-06-10T12:40:15.430Z,29.53
2019-06-10T12:41:15.458Z,29.90
2019-06-10T12:42:15.475Z,30.19
2019-06-10T12:43:15.509Z,30.48
2019-06-10T12:44:15.522Z,30.34
2019-06-10T12:45:15.549Z,30.37
2019-06-10T12:46:15.572Z,30.63
2019-06-10T12:47:15.619Z,30.15
2019-06-10T12:48:15.625Z,30.15
2019-06-10T12:49:18.387Z,29.63
2019-06-10T12:50:15.664Z,29.44
2019-06-10T12:51:15.693Z,29.13
2019-06-10T12:52:15.716Z,28.81
2019-06-10T12:53:16.237Z,28.88